createdAt,value
2018-07-26T00:01:47.142Z,53.89
2018-07-26T00:04:15.314Z,54.04
2018-07-26T00:06:43.482Z,53.60
2018-07-26T00:09:12.174Z,54.36
2018-07-26T00:11:40.934Z,54.59
2018-07-26T00:14:09.102Z,54.25
2018-07-26T00:16:37.278Z,54.78
2018-07-26T00:19:05.478Z,54.68
2018-07-26T00:21:33.728Z,54.88
2018-07-26T00:24:01.859Z,55.07
2018-07-26T00:26:30.032Z,55.53
2018-07-26T00:28:58.194Z,55.31
2018-07-26T00:31:26.358Z,55.89
2018-07-26T00:33:54.518Z,55.96
2018-07-26T00:36:22.686Z,55.73
2018-07-26T00:38:50.858Z,56.11
2018-07-26T00:41:19.021Z,56.52
2018-07-26T00:43:47.182Z,56.32
2018-07-26T00:46:15.362Z,55.97
2018-07-26T00:48:43.549Z,56.17
2018-07-26T00:51:11.714Z,56.80
2018-07-26T00:53:39.894Z,56.28
2018-07-26T00:56:08.069Z,56.04
2018-07-26T00:58:36.238Z,56.61
2018-07-26T01:01:04.427Z,56.21
2018-07-26T01:03:32.604Z,56.68
2018-07-26T01:06:00.762Z,56.89
2018-07-26T01:08:28.941Z,56.90
2018-07-26T01:10:57.102Z,56.80
2018-07-26T01:13:25.271Z,56.98
2018-07-26T01:15:53.446Z,56.67
2018-07-26T01:18:21.627Z,56.75
2018-07-26T01:20:49.817Z,56.66
2018-07-26T01:23:17.986Z,56.71
2018-07-26T01:25:46.162Z,56.21
2018-07-26T01:28:14.342Z,56.80
2018-07-26T01:30:42.515Z,56.99
2018-07-26T01:33:10.710Z,56.93
2018-07-26T01:35:38.898Z,56.97
2018-07-26T01:38:07.062Z,57.12
2018-07-26T01:40:35.257Z,57.17
2018-07-26T01:43:47.009Z,57.05
2018-07-26T01:46:15.292Z,57.85
2018-07-26T01:48:44.274Z,57.75
2018-07-26T01:51:13.283Z,58.32
2018-07-26T01:53:41.646Z,58.40
2018-07-26T01:56:10.547Z,58.30
2018-07-26T01:58:38.837Z,58.26
2018-07-26T02:01:08.331Z,57.77
2018-07-26T02:03:36.814Z,58.43
2018-07-26T02:06:04.989Z,58.27
2018-07-26T02:08:33.463Z,58.73
2018-07-26T02:11:01.646Z,58.98
2018-07-26T02:13:30.426Z,58.81
2018-07-26T02:15:58.610Z,58.30
2018-07-26T02:18:26.826Z,58.70
2018-07-26T02:20:55.150Z,58.92
2018-07-26T02:23:23.941Z,58.70
2018-07-26T02:25:52.102Z,59.38
2018-07-26T02:28:20.305Z,58.92
2018-07-26T02:30:48.486Z,58.70
2018-07-26T02:33:16.657Z,58.63
2018-07-26T02:35:44.857Z,59.32
2018-07-26T02:38:13.023Z,58.46
2018-07-26T02:40:41.218Z,59.00
2018-07-26T02:43:10.767Z,58.36
2018-07-26T02:45:38.954Z,58.44
2018-07-26T02:48:07.214Z,59.05
2018-07-26T02:50:35.402Z,58.38
2018-07-26T02:53:03.607Z,58.69
2018-07-26T02:55:31.814Z,57.99
2018-07-26T02:58:00.127Z,57.83
2018-07-26T03:00:28.501Z,58.04
2018-07-26T03:02:56.674Z,58.46
2018-07-26T03:05:24.846Z,58.52
2018-07-26T03:07:53.014Z,58.89
2018-07-26T03:10:21.194Z,58.58
2018-07-26T03:12:49.354Z,58.86
2018-07-26T03:15:17.530Z,58.09
2018-07-26T03:17:45.699Z,58.22
2018-07-26T03:20:13.894Z,58.31
2018-07-26T03:22:42.112Z,58.06
2018-07-26T03:25:10.278Z,57.51
2018-07-26T03:27:38.446Z,57.36
2018-07-26T03:30:07.531Z,57.48
2018-07-26T03:32:35.698Z,57.40
2018-07-26T03:35:03.922Z,57.42
2018-07-26T03:37:32.100Z,57.20
2018-07-26T03:40:00.278Z,57.63
2018-07-26T03:42:28.450Z,58.54
2018-07-26T03:44:56.622Z,58.44
2018-07-26T03:47:24.790Z,59.19
2018-07-26T03:49:52.946Z,59.65
2018-07-26T03:52:21.142Z,59.70
2018-07-26T03:54:49.342Z,59.85
2018-07-26T03:57:17.567Z,59.90
2018-07-26T03:59:45.709Z,59.29
2018-07-26T04:02:13.875Z,59.63
2018-07-26T04:04:42.038Z,60.35
2018-07-26T04:07:10.203Z,60.36
2018-07-26T04:09:38.390Z,61.04
2018-07-26T04:12:06.722Z,60.57
2018-07-26T04:14:34.897Z,60.65
2018-07-26T04:17:03.057Z,60.42
2018-07-26T04:19:31.242Z,60.21
2018-07-26T04:21:59.410Z,60.51
2018-07-26T04:24:27.573Z,60.16
2018-07-26T04:26:55.752Z,60.57
2018-07-26T04:29:23.923Z,60.18
2018-07-26T04:31:52.175Z,60.60
2018-07-26T04:34:20.265Z,61.27
2018-07-26T04:36:48.431Z,61.05
2018-07-26T04:39:16.610Z,61.63
2018-07-26T04:41:44.770Z,62.10
2018-07-26T04:44:12.962Z,62.56
2018-07-26T04:46:41.119Z,62.99
2018-07-26T04:49:09.298Z,63.06
2018-07-26T04:51:37.478Z,63.18
2018-07-26T04:54:06.044Z,62.65
2018-07-26T04:56:34.191Z,62.62
2018-07-26T04:59:02.446Z,62.73
2018-07-26T05:01:30.606Z,62.52
2018-07-26T05:03:58.781Z,62.68
2018-07-26T05:06:26.929Z,62.82
2018-07-26T05:08:55.098Z,62.80
2018-07-26T05:11:23.266Z,62.28
2018-07-26T05:13:51.431Z,61.63
2018-07-26T05:16:19.610Z,61.85
2018-07-26T05:18:47.759Z,61.59
2018-07-26T05:21:15.929Z,60.71
2018-07-26T05:23:44.095Z,59.93
2018-07-26T05:26:12.262Z,59.56
2018-07-26T05:28:40.463Z,59.22
2018-07-26T05:31:08.653Z,58.99
2018-07-26T05:33:36.820Z,58.68
2018-07-26T05:36:05.028Z,58.91
2018-07-26T05:38:33.258Z,58.98
2018-07-26T05:41:01.641Z,58.86
2018-07-26T05:43:29.803Z,57.93
2018-07-26T05:45:57.970Z,57.89
2018-07-26T05:48:26.146Z,57.64
2018-07-26T05:50:54.357Z,56.56
2018-07-26T05:53:22.579Z,56.24
2018-07-26T05:55:50.675Z,55.99
2018-07-26T05:58:18.857Z,55.94
2018-07-26T06:00:47.059Z,55.96
2018-07-26T06:03:15.222Z,56.10
2018-07-26T06:05:43.626Z,55.50
2018-07-26T06:08:12.547Z,55.52
2018-07-26T06:10:40.802Z,55.19
2018-07-26T06:13:09.015Z,56.29
2018-07-26T06:15:38.310Z,55.75
2018-07-26T06:18:06.705Z,56.46
2018-07-26T06:20:34.914Z,55.85
2018-07-26T06:23:03.450Z,54.93
2018-07-26T06:25:31.627Z,55.23
2018-07-26T06:28:00.020Z,54.29
2018-07-26T06:30:28.252Z,53.07
2018-07-26T06:32:56.422Z,53.54
2018-07-26T06:35:24.634Z,53.15
2018-07-26T06:37:52.838Z,53.07
2018-07-26T06:40:21.046Z,53.27
2018-07-26T06:42:49.233Z,53.72
2018-07-26T06:45:17.447Z,53.01
2018-07-26T06:47:45.643Z,52.20
2018-07-26T06:50:13.966Z,52.43
2018-07-26T06:52:42.619Z,52.03
2018-07-26T06:55:11.229Z,52.26
2018-07-26T06:57:39.964Z,52.41
2018-07-26T07:00:09.443Z,52.36
2018-07-26T07:02:37.878Z,51.75
2018-07-26T07:05:06.078Z,50.65
2018-07-26T07:07:34.250Z,51.39
2018-07-26T07:10:02.442Z,51.30
2018-07-26T07:12:30.646Z,50.81
2018-07-26T07:14:59.154Z,49.12
2018-07-26T07:17:27.374Z,48.70
2018-07-26T07:19:55.630Z,49.72
2018-07-26T07:22:23.934Z,48.73
2018-07-26T07:24:52.114Z,49.52
2018-07-26T07:27:20.292Z,47.18
2018-07-26T07:29:48.478Z,45.99
2018-07-26T07:32:16.706Z,46.46
2018-07-26T07:34:44.894Z,46.70
2018-07-26T07:37:13.099Z,46.99
2018-07-26T07:39:41.290Z,47.06
2018-07-26T07:42:09.467Z,46.94
2018-07-26T07:44:37.697Z,46.33
2018-07-26T07:47:06.112Z,45.80
2018-07-26T07:49:34.326Z,46.04
2018-07-26T07:52:02.512Z,45.28
2018-07-26T07:54:30.822Z,44.55
2018-07-26T07:56:59.130Z,44.80
2018-07-26T07:59:27.401Z,42.77
2018-07-26T08:01:55.648Z,42.83
2018-07-26T08:04:23.930Z,42.49
2018-07-26T08:06:52.239Z,42.35
2018-07-26T08:09:20.395Z,41.94
2018-07-26T08:11:48.820Z,40.29
2018-07-26T08:14:17.297Z,42.23
2018-07-26T08:16:45.590Z,41.77
2018-07-26T08:19:14.010Z,41.25
2018-07-26T08:21:42.342Z,40.31
2018-07-26T08:24:10.678Z,39.68
2018-07-26T08:26:39.059Z,40.97
2018-07-26T08:29:07.481Z,40.19
2018-07-26T08:31:35.775Z,39.06
2018-07-26T08:34:04.543Z,38.89
2018-07-26T08:36:32.823Z,38.68
2018-07-26T08:39:01.227Z,39.61
2018-07-26T08:41:29.978Z,38.60
2018-07-26T08:43:58.250Z,40.49
2018-07-26T08:46:26.577Z,40.09
2018-07-26T08:48:55.510Z,38.14
2018-07-26T08:51:23.870Z,39.67
2018-07-26T08:53:52.201Z,39.33
2018-07-26T08:56:20.904Z,38.19
2018-07-26T08:58:49.091Z,37.42
2018-07-26T09:01:17.326Z,37.74
2018-07-26T09:03:45.493Z,37.05
2018-07-26T09:06:14.274Z,36.01
2018-07-26T09:08:42.442Z,35.71
2018-07-26T09:11:10.629Z,34.49
2018-07-26T09:13:38.915Z,34.30
2018-07-26T09:16:07.122Z,35.10
2018-07-26T09:18:35.302Z,34.12
2018-07-26T09:21:03.679Z,34.14
2018-07-26T09:23:31.862Z,34.65
2018-07-26T09:26:00.024Z,34.64
2018-07-26T09:28:28.250Z,32.96
2018-07-26T09:30:56.548Z,34.31
2018-07-26T09:33:24.904Z,34.19
2018-07-26T09:35:52.989Z,34.16
2018-07-26T09:38:21.389Z,32.49
2018-07-26T09:40:49.903Z,33.22
2018-07-26T09:43:18.190Z,31.54
2018-07-26T09:45:46.444Z,30.94
2018-07-26T09:48:15.639Z,30.24
2018-07-26T09:50:43.958Z,31.43
2018-07-26T09:53:12.250Z,29.83
2018-07-26T09:55:40.750Z,31.16
2018-07-26T09:58:09.202Z,29.86
2018-07-26T10:00:42.659Z,29.39
2018-07-26T10:03:11.057Z,28.89
2018-07-26T10:05:39.349Z,28.76
2018-07-26T10:08:07.653Z,28.54
2018-07-26T10:10:36.279Z,28.54
2018-07-26T10:13:04.627Z,27.33
2018-07-26T10:15:33.025Z,27.58
2018-07-26T10:18:01.606Z,27.73
2018-07-26T10:20:30.654Z,27.39
2018-07-26T10:22:58.897Z,26.59
2018-07-26T10:25:27.232Z,27.01
2018-07-26T10:27:55.593Z,26.15
2018-07-26T10:30:23.718Z,27.47
2018-07-26T10:32:52.390Z,26.01
2018-07-26T10:35:20.758Z,26.56
2018-07-26T10:37:50.211Z,26.34
2018-07-26T10:40:18.370Z,24.94
2018-07-26T10:42:46.538Z,25.43
2018-07-26T10:45:14.755Z,26.33
2018-07-26T10:47:42.922Z,24.73
2018-07-26T10:50:11.634Z,24.29
2018-07-26T10:52:39.835Z,25.15
2018-07-26T10:55:08.698Z,24.84
2018-07-26T10:57:37.987Z,24.71
2018-07-26T11:00:07.401Z,23.78
2018-07-26T11:02:35.578Z,24.22
2018-07-26T11:05:04.264Z,25.69
2018-07-26T11:07:32.424Z,24.71
2018-07-26T11:10:00.782Z,23.52
2018-07-26T11:12:28.942Z,22.89
2018-07-26T11:15:33.307Z,24.74
2018-07-26T11:18:01.986Z,23.82
2018-07-26T11:20:30.181Z,23.22
2018-07-26T11:22:58.541Z,24.02
2018-07-26T11:25:26.706Z,24.44
2018-07-26T11:27:55.398Z,23.43
2018-07-26T11:30:23.991Z,24.12
2018-07-26T11:32:52.165Z,24.17
2018-07-26T11:35:20.367Z,23.65
2018-07-26T11:37:48.568Z,24.22
2018-07-26T11:40:16.737Z,24.65
2018-07-26T11:42:45.129Z,23.73
2018-07-26T11:45:13.427Z,23.51
2018-07-26T11:47:41.638Z,23.97
2018-07-26T11:50:11.129Z,23.90
2018-07-26T11:52:40.237Z,24.29
2018-07-26T11:55:08.682Z,23.14
2018-07-26T11:57:36.975Z,23.29
2018-07-26T12:00:06.220Z,24.34
2018-07-26T12:02:34.488Z,24.39
2018-07-26T12:05:02.681Z,24.67
2018-07-26T12:07:31.143Z,24.69
2018-07-26T12:09:59.406Z,27.25
2018-07-26T12:12:27.675Z,27.04
2018-07-26T12:14:55.970Z,26.49
2018-07-26T12:17:24.311Z,26.13
2018-07-26T12:19:52.630Z,25.19
2018-07-26T12:22:20.862Z,26.48
2018-07-26T12:24:50.458Z,25.21
2018-07-26T12:27:18.982Z,24.02
2018-07-26T12:29:47.163Z,24.29
2018-07-26T12:32:15.406Z,24.91
2018-07-26T12:34:43.734Z,24.33
2018-07-26T12:37:11.895Z,24.81
2018-07-26T12:39:40.075Z,25.02
2018-07-26T12:42:08.238Z,25.69
2018-07-26T12:44:37.084Z,24.53
2018-07-26T12:47:05.550Z,25.14
2018-07-26T12:49:33.922Z,24.82
2018-07-26T12:52:02.101Z,23.34
2018-07-26T12:54:30.319Z,24.80
2018-07-26T12:56:58.501Z,25.76
2018-07-26T12:59:26.666Z,25.64
2018-07-26T13:01:54.875Z,25.49
2018-07-26T13:04:23.046Z,26.71
2018-07-26T13:06:51.206Z,25.76
2018-07-26T13:09:19.390Z,26.16
2018-07-26T13:11:47.567Z,24.14
2018-07-26T13:14:15.741Z,24.44
2018-07-26T13:16:43.903Z,25.73
2018-07-26T13:19:12.066Z,25.66
2018-07-26T13:21:40.234Z,26.40
2018-07-26T13:24:08.390Z,27.02
2018-07-26T13:26:36.561Z,27.95
2018-07-26T13:29:04.728Z,28.92
2018-07-26T13:31:32.890Z,29.56
2018-07-26T13:34:01.058Z,30.69
2018-07-26T13:36:29.267Z,30.33
2018-07-26T13:38:57.422Z,29.34
2018-07-26T13:41:25.599Z,30.10
2018-07-26T13:43:53.902Z,30.21
2018-07-26T13:46:22.149Z,30.72
2018-07-26T13:48:50.286Z,30.66
2018-07-26T13:51:18.491Z,29.57
2018-07-26T13:53:46.676Z,30.03
2018-07-26T13:56:14.883Z,28.45
2018-07-26T13:58:43.059Z,27.21
2018-07-26T14:01:11.271Z,29.66
2018-07-26T14:03:39.411Z,29.57
2018-07-26T14:06:07.606Z,27.51
2018-07-26T14:08:35.794Z,26.50
2018-07-26T14:11:04.068Z,26.06
2018-07-26T14:13:32.445Z,25.36
2018-07-26T14:16:00.790Z,25.21
2018-07-26T14:18:28.850Z,25.46
2018-07-26T14:20:57.055Z,26.51
2018-07-26T14:23:30.731Z,27.46
2018-07-26T14:25:58.906Z,27.60
2018-07-26T14:28:27.112Z,27.84
2018-07-26T14:30:55.593Z,27.78
2018-07-26T14:33:23.793Z,27.80
2018-07-26T14:35:52.409Z,27.78
2018-07-26T14:38:20.785Z,30.06
2018-07-26T14:40:48.930Z,29.17
2018-07-26T14:43:17.174Z,30.55
2018-07-26T14:45:45.395Z,31.65
2018-07-26T14:48:13.598Z,31.40
2018-07-26T14:50:41.878Z,31.76
2018-07-26T14:53:10.071Z,30.51
2018-07-26T14:55:38.254Z,30.18
2018-07-26T14:58:06.446Z,28.18
2018-07-26T15:00:34.694Z,29.81
2018-07-26T15:03:02.827Z,30.78
2018-07-26T15:05:31.018Z,30.02
2018-07-26T15:07:59.298Z,30.18
2018-07-26T15:10:27.462Z,31.15
2018-07-26T15:12:55.682Z,30.33
2018-07-26T15:15:23.914Z,31.94
2018-07-26T15:17:52.078Z,32.40
2018-07-26T15:20:20.263Z,32.88
2018-07-26T15:22:48.454Z,32.21
2018-07-26T15:25:21.747Z,30.38
2018-07-26T15:27:49.911Z,29.76
2018-07-26T15:30:18.159Z,27.53
2018-07-26T15:32:46.374Z,28.05
2018-07-26T15:35:14.506Z,28.08
2018-07-26T15:37:42.718Z,28.43
2018-07-26T15:40:10.854Z,27.05
2018-07-26T15:42:39.014Z,26.71
2018-07-26T15:45:07.253Z,26.82
2018-07-26T15:47:35.479Z,26.68
2018-07-26T15:50:03.710Z,27.22
2018-07-26T15:52:31.993Z,27.43
2018-07-26T15:55:00.154Z,27.06
2018-07-26T15:57:28.483Z,26.56
2018-07-26T15:59:56.950Z,25.79
2018-07-26T16:02:25.274Z,25.56
2018-07-26T16:04:53.586Z,26.31
2018-07-26T16:07:21.842Z,24.71
2018-07-26T16:09:50.002Z,25.74
2018-07-26T16:12:18.285Z,25.31
2018-07-26T16:14:46.709Z,24.62
2018-07-26T16:17:14.870Z,25.23
2018-07-26T16:19:43.166Z,26.23
2018-07-26T16:22:11.363Z,27.25
2018-07-26T16:24:39.532Z,27.14
2018-07-26T16:27:07.691Z,27.22
2018-07-26T16:29:35.862Z,27.90
2018-07-26T16:32:04.097Z,28.44
2018-07-26T16:34:32.266Z,28.36
2018-07-26T16:37:00.575Z,28.70
2018-07-26T16:39:28.758Z,29.17
2018-07-26T16:41:57.047Z,30.43
2018-07-26T16:44:25.222Z,30.00
2018-07-26T16:46:53.418Z,31.25
2018-07-26T16:49:22.831Z,31.87
2018-07-26T16:51:51.207Z,32.38
2018-07-26T16:54:19.581Z,32.01
2018-07-26T16:56:47.879Z,32.04
2018-07-26T16:59:16.229Z,32.38
2018-07-26T17:01:44.454Z,32.75
2018-07-26T17:04:12.807Z,33.00
2018-07-26T17:06:41.050Z,33.10
2018-07-26T17:09:10.392Z,33.12
2018-07-26T17:11:38.697Z,33.05
2018-07-26T17:14:07.206Z,33.11
2018-07-26T17:16:35.577Z,33.38
2018-07-26T17:19:03.978Z,32.91
2018-07-26T17:21:32.138Z,33.33
2018-07-26T17:24:00.403Z,33.08
2018-07-26T17:26:28.611Z,33.16
2018-07-26T17:28:56.906Z,32.55
2018-07-26T17:31:25.000Z,33.17
2018-07-26T17:33:53.507Z,33.82
2018-07-26T17:36:21.742Z,34.95
2018-07-26T17:38:49.910Z,35.47
2018-07-26T17:41:18.078Z,34.59
2018-07-26T17:43:46.300Z,34.26
2018-07-26T17:46:14.442Z,32.38
2018-07-26T17:48:42.646Z,32.67
2018-07-26T17:51:10.867Z,32.68
2018-07-26T17:53:39.010Z,33.19
2018-07-26T17:56:07.694Z,34.77
2018-07-26T17:58:36.078Z,35.55
2018-07-26T18:01:04.303Z,35.85
2018-07-26T18:03:32.540Z,36.23
2018-07-26T18:06:00.815Z,36.48
2018-07-26T18:08:29.294Z,36.66
2018-07-26T18:10:57.571Z,37.86
2018-07-26T18:13:25.851Z,35.45
2018-07-26T18:15:54.099Z,34.56
2018-07-26T18:18:22.362Z,35.87
2018-07-26T18:20:50.610Z,35.76
2018-07-26T18:23:20.032Z,36.50
2018-07-26T18:25:48.210Z,37.78
2018-07-26T18:28:16.749Z,37.91
2018-07-26T18:30:45.174Z,37.64
2018-07-26T18:33:13.418Z,37.25
2018-07-26T18:35:41.828Z,37.12
2018-07-26T18:38:10.030Z,36.27
2018-07-26T18:40:38.191Z,36.16
2018-07-26T18:43:06.392Z,36.33
2018-07-26T18:45:34.582Z,36.69
2018-07-26T18:48:02.854Z,37.60
2018-07-26T18:50:31.067Z,38.06
2018-07-26T18:52:59.418Z,38.55
2018-07-26T18:55:27.694Z,37.39
2018-07-26T18:57:56.017Z,37.62
2018-07-26T19:00:24.195Z,37.78
2018-07-26T19:02:52.498Z,38.42
2018-07-26T19:05:20.695Z,39.14
2018-07-26T19:07:48.982Z,39.66
2018-07-26T19:10:17.266Z,39.53
2018-07-26T19:12:45.526Z,40.02
2018-07-26T19:15:13.725Z,39.94
2018-07-26T19:17:41.970Z,39.39
2018-07-26T19:20:11.349Z,38.99
2018-07-26T19:22:39.565Z,39.09
2018-07-26T19:25:08.790Z,39.14
2018-07-26T19:27:37.370Z,39.89
2018-07-26T19:30:06.931Z,39.54
2018-07-26T19:32:36.955Z,38.47
2018-07-26T19:35:05.492Z,38.63
2018-07-26T19:37:34.178Z,39.41
2018-07-26T19:40:02.351Z,40.03
2018-07-26T19:42:30.519Z,38.35
2018-07-26T19:44:58.728Z,38.23
2018-07-26T19:47:26.915Z,37.77
2018-07-26T19:49:55.078Z,38.67
2018-07-26T19:52:23.515Z,39.75
2018-07-26T19:54:51.926Z,37.47
2018-07-26T19:57:20.150Z,38.42
2018-07-26T19:59:48.364Z,37.85
2018-07-26T20:02:16.664Z,37.74
2018-07-26T20:04:44.830Z,37.22
2018-07-26T20:07:12.994Z,37.07
2018-07-26T20:09:41.244Z,37.12
2018-07-26T20:12:09.620Z,37.05
2018-07-26T20:14:37.778Z,37.02
2018-07-26T20:17:06.319Z,36.45
2018-07-26T20:19:34.478Z,36.48
2018-07-26T20:22:02.706Z,36.05
2018-07-26T20:24:30.866Z,37.81
2018-07-26T20:26:59.030Z,37.67
2018-07-26T20:29:27.234Z,38.94
2018-07-26T20:31:55.427Z,38.97
2018-07-26T20:34:23.617Z,39.75
2018-07-26T20:36:51.807Z,40.18
2018-07-26T20:39:19.982Z,39.06
2018-07-26T20:41:48.170Z,39.60
2018-07-26T20:44:16.343Z,40.09
2018-07-26T20:46:44.523Z,38.86
2018-07-26T20:49:12.682Z,38.99
2018-07-26T20:51:40.850Z,39.02
2018-07-26T20:54:09.031Z,38.57
2018-07-26T20:56:37.194Z,38.58
2018-07-26T20:59:05.390Z,38.71
2018-07-26T21:01:33.599Z,39.54
2018-07-26T21:04:01.771Z,39.11
2018-07-26T21:06:29.970Z,37.60
2018-07-26T21:08:58.128Z,37.62
2018-07-26T21:11:26.379Z,37.34
2018-07-26T21:13:54.507Z,37.44
2018-07-26T21:16:22.706Z,37.38
2018-07-26T21:18:50.966Z,38.21
2018-07-26T21:21:19.146Z,37.34
2018-07-26T21:23:47.327Z,38.07
2018-07-26T21:26:15.502Z,38.04
2018-07-26T21:28:43.682Z,37.51
2018-07-26T21:31:11.897Z,37.52
2018-07-26T21:33:40.083Z,37.81
2018-07-26T21:36:08.251Z,37.71
2018-07-26T21:38:36.423Z,37.27
2018-07-26T21:41:04.590Z,37.54
2018-07-26T21:43:32.762Z,37.13
2018-07-26T21:46:00.937Z,37.03
2018-07-26T21:48:29.106Z,36.93
2018-07-26T21:50:57.414Z,36.98
2018-07-26T21:53:25.622Z,36.47
2018-07-26T21:55:53.771Z,36.18
2018-07-26T21:58:21.954Z,36.45
2018-07-26T22:00:55.487Z,36.48
2018-07-26T22:03:23.672Z,35.89
2018-07-26T22:05:52.959Z,36.05
2018-07-26T22:08:21.339Z,35.10
2018-07-26T22:10:50.082Z,34.92
2018-07-26T22:13:18.766Z,34.81
2018-07-26T22:15:46.946Z,35.40
2018-07-26T22:18:15.118Z,34.68
2018-07-26T22:20:43.303Z,35.08
2018-07-26T22:23:11.513Z,34.49
2018-07-26T22:25:39.673Z,34.66
2018-07-26T22:28:07.859Z,34.73
2018-07-26T22:30:36.056Z,34.56
2018-07-26T22:33:04.235Z,34.92
2018-07-26T22:35:32.406Z,34.81
2018-07-26T22:38:00.558Z,34.88
2018-07-26T22:40:28.746Z,34.04
2018-07-26T22:42:56.920Z,34.26
2018-07-26T22:45:25.086Z,34.51
2018-07-26T22:47:53.262Z,35.45
2018-07-26T22:50:21.443Z,35.00
2018-07-26T22:52:49.606Z,34.98
2018-07-26T22:55:17.792Z,35.04
2018-07-26T22:57:45.958Z,34.41
2018-07-26T23:00:14.122Z,34.23
2018-07-26T23:02:42.294Z,34.98
2018-07-26T23:05:10.459Z,34.17
2018-07-26T23:07:38.623Z,34.29
2018-07-26T23:10:08.314Z,35.07
2018-07-26T23:12:36.500Z,34.57
2018-07-26T23:15:05.150Z,34.44
2018-07-26T23:17:33.360Z,34.68
2018-07-26T23:20:01.523Z,34.88
2018-07-26T23:22:29.694Z,34.62
2018-07-26T23:24:57.858Z,34.73
2018-07-26T23:27:26.039Z,35.16
2018-07-26T23:29:54.211Z,34.68
2018-07-26T23:32:22.390Z,34.85
2018-07-26T23:34:50.585Z,35.12
2018-07-26T23:37:18.846Z,35.25
2018-07-26T23:39:47.022Z,35.33
2018-07-26T23:42:15.206Z,35.01
2018-07-26T23:44:43.398Z,35.66
2018-07-26T23:47:11.633Z,35.70
2018-07-26T23:49:39.806Z,35.65
2018-07-26T23:52:07.986Z,35.53
2018-07-26T23:54:36.171Z,36.58
2018-07-26T23:57:04.370Z,36.70
2018-07-26T23:59:32.554Z,37.01
